Sebastian, Florida
Current Conditions -  °F | °C
As of 3:53 PM on Friday 28 Nov 2014 (Local Time) from KVRB Reporting Station
Clear Clear  
Wind Chill: 61°   Ceiling: Unl
Heat Index: 61°   Visibility: 10mi
Dew Point: 48°   Wind: 14mph
Humidity: 62%   Direction: 360°N
Pressure: 30.21"   Gusts: 23mph
Location:  27.82°N, 80.47°W
Report Text: KVRB 282053Z 36012G20KT 10SM CLR 16/09 A3021 RMK AO2 SLP230 T01610089 56008
Loading
Personal Weather Stations






























Interactive Weather Map New forecast layout! Learn more

10-Day Weather Forecast

Advertisements
Track Severe Weather on mobile